createdAt,value
2023-03-06T00:00:14.809Z,74.85
2023-03-06T00:02:42.653Z,74.67
2023-03-06T00:05:10.687Z,74.88
2023-03-06T00:07:40.323Z,74.39
2023-03-06T00:10:08.449Z,74.63
2023-03-06T00:12:36.426Z,74.34
2023-03-06T00:15:05.763Z,74.21
2023-03-06T00:17:33.784Z,74.26
2023-03-06T00:20:01.812Z,74.39
2023-03-06T00:22:31.083Z,74.57
2023-03-06T00:25:00.352Z,74.75
2023-03-06T00:27:28.257Z,74.77
2023-03-06T00:29:56.934Z,74.85
2023-03-06T00:32:25.313Z,74.86
2023-03-06T00:34:53.842Z,74.83
2023-03-06T00:37:22.239Z,75.03
2023-03-06T00:39:50.360Z,75.25
2023-03-06T00:42:20.192Z,75.22
2023-03-06T00:44:48.401Z,75.23
2023-03-06T00:47:17.430Z,75.37
2023-03-06T00:49:45.822Z,75.01
2023-03-06T00:52:14.455Z,75.32
2023-03-06T00:54:42.540Z,75.35
2023-03-06T00:57:10.961Z,75.03
2023-03-06T00:59:40.201Z,75.37
2023-03-06T01:02:08.525Z,75.12
2023-03-06T01:04:36.739Z,75.55
2023-03-06T01:07:04.758Z,75.56
2023-03-06T01:09:33.131Z,75.22
2023-03-06T01:12:01.575Z,75.67
2023-03-06T01:14:29.509Z,75.36
2023-03-06T01:16:58.940Z,75.43
2023-03-06T01:19:26.860Z,75.52
2023-03-06T01:21:54.951Z,75.30
2023-03-06T01:24:24.167Z,75.49
2023-03-06T01:26:52.203Z,75.41
2023-03-06T01:29:20.219Z,75.44
2023-03-06T01:31:48.230Z,75.57
2023-03-06T01:34:17.586Z,75.36
2023-03-06T01:36:45.562Z,75.59
2023-03-06T01:39:13.498Z,75.25
2023-03-06T01:41:41.375Z,75.39
2023-03-06T01:44:11.378Z,75.36
2023-03-06T01:46:42.334Z,75.64
2023-03-06T01:49:16.735Z,75.52
2023-03-06T01:51:48.797Z,75.99
2023-03-06T01:54:18.765Z,75.53
2023-03-06T01:56:48.106Z,75.49
2023-03-06T01:59:16.174Z,75.35
2023-03-06T02:01:44.822Z,75.38
2023-03-06T02:04:13.229Z,75.70
2023-03-06T02:06:43.287Z,75.59
2023-03-06T02:09:13.589Z,75.72
2023-03-06T02:11:44.287Z,75.54
2023-03-06T02:14:13.813Z,75.35
2023-03-06T02:16:42.948Z,75.52
2023-03-06T02:19:28.782Z,75.91
2023-03-06T02:21:56.790Z,75.70
2023-03-06T02:24:30.697Z,75.44
2023-03-06T02:27:01.008Z,75.68
2023-03-06T02:29:30.163Z,75.55
2023-03-06T02:31:58.365Z,75.40
2023-03-06T02:34:59.385Z,75.37
2023-03-06T02:37:28.318Z,75.71
2023-03-06T02:40:00.738Z,75.50
2023-03-06T02:42:30.188Z,75.71
2023-03-06T02:45:00.449Z,75.50
2023-03-06T02:47:28.395Z,75.91
2023-03-06T02:49:56.502Z,75.94
2023-03-06T02:52:24.594Z,75.58
2023-03-06T02:54:52.574Z,75.77
2023-03-06T02:57:20.613Z,75.90
2023-03-06T02:59:49.956Z,75.65
2023-03-06T03:02:17.857Z,75.76
2023-03-06T03:04:45.941Z,76.04
2023-03-06T03:07:13.940Z,75.84
2023-03-06T03:09:41.860Z,75.69
2023-03-06T03:12:10.184Z,76.12
2023-03-06T03:14:38.175Z,76.07
2023-03-06T03:17:07.580Z,76.26
2023-03-06T03:19:36.074Z,76.22
2023-03-06T03:22:04.331Z,75.97
2023-03-06T03:24:32.342Z,76.26
2023-03-06T03:27:00.506Z,76.26
2023-03-06T03:29:28.460Z,76.05
2023-03-06T03:31:56.314Z,76.22
2023-03-06T03:34:25.704Z,76.24
2023-03-06T03:36:53.754Z,76.08
2023-03-06T03:39:21.723Z,76.12
2023-03-06T03:41:49.627Z,75.89
2023-03-06T03:44:17.578Z,75.88
2023-03-06T03:46:45.621Z,76.10
2023-03-06T03:49:13.627Z,76.28
2023-03-06T03:51:43.035Z,75.91
2023-03-06T03:54:11.357Z,76.25
2023-03-06T03:56:40.465Z,76.29
2023-03-06T03:59:08.553Z,76.28
2023-03-06T04:01:39.380Z,76.39
2023-03-06T04:04:07.532Z,75.96
2023-03-06T04:06:35.477Z,76.02
2023-03-06T04:09:05.548Z,76.25
2023-03-06T04:11:33.572Z,76.07
2023-03-06T04:14:01.648Z,75.91
2023-03-06T04:16:29.701Z,75.75
2023-03-06T04:18:57.663Z,75.70
2023-03-06T04:21:25.673Z,75.99
2023-03-06T04:23:53.580Z,75.90
2023-03-06T04:26:22.998Z,75.80
2023-03-06T04:28:50.906Z,75.91
2023-03-06T04:31:18.921Z,75.53
2023-03-06T04:33:46.801Z,75.54
2023-03-06T04:36:18.908Z,75.87
2023-03-06T04:38:47.104Z,75.47
2023-03-06T04:41:15.112Z,75.73
2023-03-06T04:43:44.658Z,75.71
2023-03-06T04:46:12.650Z,75.76
2023-03-06T04:48:40.758Z,75.43
2023-03-06T04:51:08.969Z,75.42
2023-03-06T04:53:36.991Z,75.30
2023-03-06T04:56:05.087Z,75.13
2023-03-06T04:58:32.977Z,75.02
2023-03-06T05:01:02.347Z,75.55
2023-03-06T05:03:30.497Z,74.99
2023-03-06T05:05:58.554Z,75.20
2023-03-06T05:08:26.548Z,74.93
2023-03-06T05:10:56.702Z,74.65
2023-03-06T05:13:24.793Z,74.59
2023-03-06T05:15:53.277Z,74.63
2023-03-06T05:18:22.840Z,74.08
2023-03-06T05:20:51.082Z,74.73
2023-03-06T05:23:19.076Z,74.49
2023-03-06T05:25:46.979Z,74.15
2023-03-06T05:28:14.971Z,73.69
2023-03-06T05:30:42.886Z,74.27
2023-03-06T05:33:10.938Z,74.14
2023-03-06T05:35:40.509Z,74.21
2023-03-06T05:38:08.534Z,74.61
2023-03-06T05:40:36.468Z,74.18
2023-03-06T05:43:04.553Z,74.22
2023-03-06T05:45:32.600Z,73.69
2023-03-06T05:48:00.438Z,73.78
2023-03-06T05:50:28.430Z,73.56
2023-03-06T05:52:57.933Z,72.99
2023-03-06T05:55:26.093Z,72.19
2023-03-06T05:57:56.328Z,72.35
2023-03-06T06:00:24.831Z,71.98
2023-03-06T06:02:52.976Z,72.01
2023-03-06T06:05:21.112Z,71.09
2023-03-06T06:07:49.319Z,70.06
2023-03-06T06:10:18.913Z,70.15
2023-03-06T06:12:46.959Z,70.87
2023-03-06T06:15:15.517Z,70.59
2023-03-06T06:17:43.461Z,69.86
2023-03-06T06:20:12.434Z,70.46
2023-03-06T06:22:40.373Z,70.55
2023-03-06T06:25:08.889Z,70.18
2023-03-06T06:27:38.373Z,69.81
2023-03-06T06:30:07.410Z,70.17
2023-03-06T06:32:38.666Z,69.81
2023-03-06T06:35:07.160Z,70.17
2023-03-06T06:37:35.044Z,69.73
2023-03-06T06:40:04.713Z,69.42
2023-03-06T06:42:39.106Z,69.47
2023-03-06T06:45:10.025Z,69.96
2023-03-06T06:47:41.222Z,69.46
2023-03-06T06:50:11.694Z,69.08
2023-03-06T06:52:39.640Z,69.70
2023-03-06T06:55:08.180Z,69.06
2023-03-06T06:57:36.234Z,69.55
2023-03-06T07:00:05.018Z,69.15
2023-03-06T07:02:34.724Z,68.38
2023-03-06T07:05:05.114Z,68.64
2023-03-06T07:07:35.277Z,68.22
2023-03-06T07:10:03.302Z,68.74
2023-03-06T07:12:32.952Z,68.29
2023-03-06T07:15:00.989Z,69.00
2023-03-06T07:17:28.826Z,68.40
2023-03-06T07:19:58.245Z,68.00
2023-03-06T07:22:26.501Z,68.18
2023-03-06T07:24:54.551Z,68.04
2023-03-06T07:27:23.895Z,67.79
2023-03-06T07:29:52.103Z,65.91
2023-03-06T07:32:20.960Z,66.24
2023-03-06T07:34:49.264Z,66.97
2023-03-06T07:37:18.827Z,66.57
2023-03-06T07:39:47.133Z,66.32
2023-03-06T07:42:15.473Z,65.07
2023-03-06T07:44:43.746Z,66.04
2023-03-06T07:47:13.191Z,65.98
2023-03-06T07:49:41.146Z,65.33
2023-03-06T07:52:09.332Z,65.87
2023-03-06T07:54:38.697Z,63.99
2023-03-06T07:57:06.677Z,63.50
2023-03-06T07:59:34.757Z,64.27
2023-03-06T08:02:02.880Z,63.60
2023-03-06T08:04:30.749Z,63.49
2023-03-06T08:07:00.428Z,64.42
2023-03-06T08:09:28.527Z,64.39
2023-03-06T08:11:58.281Z,63.55
2023-03-06T08:14:27.441Z,61.17
2023-03-06T08:16:56.426Z,62.87
2023-03-06T08:19:24.577Z,62.26
2023-03-06T08:21:52.565Z,61.45
2023-03-06T08:24:20.612Z,61.69
2023-03-06T08:26:48.647Z,62.58
2023-03-06T08:29:18.107Z,62.44
2023-03-06T08:31:47.160Z,62.61
2023-03-06T08:34:16.174Z,62.70
2023-03-06T08:36:44.456Z,63.06
2023-03-06T08:39:13.124Z,62.85
2023-03-06T08:41:42.206Z,62.87
2023-03-06T08:44:10.288Z,62.13
2023-03-06T08:46:40.141Z,62.18
2023-03-06T08:49:08.104Z,61.12
2023-03-06T08:51:36.217Z,61.11
2023-03-06T08:54:04.397Z,61.49
2023-03-06T08:56:33.425Z,60.51
2023-03-06T08:59:02.716Z,60.82
2023-03-06T09:01:32.241Z,60.80
2023-03-06T09:04:02.809Z,61.37
2023-03-06T09:06:32.319Z,60.65
2023-03-06T09:09:00.885Z,59.96
2023-03-06T09:11:29.105Z,59.95
2023-03-06T09:13:57.924Z,59.82
2023-03-06T09:16:26.042Z,59.69
2023-03-06T09:18:54.430Z,60.12
2023-03-06T09:21:27.386Z,60.22
2023-03-06T09:23:58.798Z,59.89
2023-03-06T09:26:39.545Z,58.78
2023-03-06T09:29:12.731Z,59.11
2023-03-06T09:31:40.780Z,59.40
2023-03-06T09:34:08.765Z,58.57
2023-03-06T09:36:55.043Z,58.54
2023-03-06T09:39:24.564Z,58.72
2023-03-06T09:41:52.813Z,58.20
2023-03-06T09:44:22.665Z,58.16
2023-03-06T09:47:09.370Z,58.05
2023-03-06T09:49:46.094Z,58.34
2023-03-06T09:52:26.343Z,57.90
2023-03-06T09:54:55.197Z,57.66
2023-03-06T09:57:24.180Z,57.25
2023-03-06T09:59:53.424Z,57.80
2023-03-06T10:02:24.252Z,58.49
2023-03-06T10:04:55.896Z,58.40
2023-03-06T10:07:27.595Z,59.33
2023-03-06T10:09:58.556Z,58.66
2023-03-06T10:12:28.662Z,58.54
2023-03-06T10:15:04.019Z,57.80
2023-03-06T10:17:35.456Z,58.35
2023-03-06T10:20:11.012Z,58.36
2023-03-06T10:22:46.211Z,56.65
2023-03-06T10:25:22.826Z,56.21
2023-03-06T10:27:51.987Z,55.98
2023-03-06T10:30:27.350Z,54.72
2023-03-06T10:32:58.829Z,55.04
2023-03-06T10:35:30.800Z,56.17
2023-03-06T10:38:06.566Z,54.99
2023-03-06T10:40:41.684Z,56.08
2023-03-06T10:43:12.494Z,56.07
2023-03-06T10:45:50.418Z,57.42
2023-03-06T10:48:23.207Z,56.81
2023-03-06T10:50:51.989Z,57.20
2023-03-06T10:53:26.392Z,57.40
2023-03-06T10:55:58.487Z,57.85
2023-03-06T10:58:28.336Z,57.61
2023-03-06T11:01:08.076Z,56.79
2023-03-06T11:03:36.701Z,55.91
2023-03-06T11:06:07.728Z,55.97
2023-03-06T11:08:37.487Z,54.93
2023-03-06T11:11:06.809Z,54.37
2023-03-06T11:13:36.440Z,54.09
2023-03-06T11:16:06.672Z,55.34
2023-03-06T11:18:39.271Z,55.87
2023-03-06T11:21:09.281Z,56.18
2023-03-06T11:23:40.615Z,56.01
2023-03-06T11:26:20.331Z,55.07
2023-03-06T11:28:49.761Z,52.38
2023-03-06T11:31:19.998Z,53.16
2023-03-06T11:33:51.320Z,51.15
2023-03-06T11:36:24.253Z,51.02
2023-03-06T11:38:54.244Z,50.05
2023-03-06T11:41:27.076Z,48.13
2023-03-06T11:43:59.316Z,47.99
2023-03-06T11:46:29.653Z,49.04
2023-03-06T11:49:01.124Z,49.93
2023-03-06T11:51:31.670Z,49.39
2023-03-06T11:54:01.478Z,50.62
2023-03-06T11:56:36.938Z,51.96
2023-03-06T11:59:10.846Z,52.59
2023-03-06T12:01:42.622Z,52.57
2023-03-06T12:04:27.517Z,53.28
2023-03-06T12:07:00.612Z,54.01
2023-03-06T12:09:36.348Z,55.35
2023-03-06T12:12:20.992Z,61.72
2023-03-06T12:14:56.641Z,62.38
2023-03-06T12:17:31.637Z,65.71
2023-03-06T12:20:25.371Z,70.02
2023-03-06T12:23:02.362Z,70.17
2023-03-06T12:25:45.187Z,69.91
2023-03-06T12:28:27.840Z,67.96
2023-03-06T12:31:06.798Z,66.90
2023-03-06T12:33:41.389Z,65.74
2023-03-06T12:36:33.345Z,63.62
2023-03-06T12:39:06.474Z,61.09
2023-03-06T12:41:41.329Z,61.36
2023-03-06T12:44:24.075Z,62.56
2023-03-06T12:46:55.580Z,62.56
2023-03-06T12:49:32.059Z,63.28
2023-03-06T12:52:01.756Z,65.12
2023-03-06T12:54:30.810Z,65.90
2023-03-06T12:57:01.633Z,65.83
2023-03-06T12:59:37.100Z,67.08
2023-03-06T13:02:19.237Z,67.01
2023-03-06T13:04:58.617Z,66.94
2023-03-06T13:07:32.166Z,66.95
2023-03-06T13:10:07.014Z,66.19
2023-03-06T13:12:55.787Z,64.86
2023-03-06T13:15:33.891Z,63.73
2023-03-06T13:18:02.240Z,63.07
2023-03-06T13:20:39.281Z,60.73
2023-03-06T13:23:25.972Z,60.70
2023-03-06T13:25:54.130Z,61.07
2023-03-06T13:28:26.758Z,60.25
2023-03-06T13:30:56.216Z,61.15
2023-03-06T13:33:42.753Z,59.41
2023-03-06T13:36:21.293Z,59.89
2023-03-06T13:38:57.012Z,59.53
2023-03-06T13:41:35.928Z,58.73
2023-03-06T13:44:07.726Z,59.31
2023-03-06T13:46:38.285Z,58.10
2023-03-06T13:49:11.957Z,57.63
2023-03-06T13:51:41.494Z,58.94
2023-03-06T13:54:24.622Z,59.66
2023-03-06T13:56:58.503Z,60.45
2023-03-06T13:59:47.184Z,60.66
2023-03-06T14:02:34.713Z,61.27
2023-03-06T14:05:03.920Z,61.27
2023-03-06T14:07:33.685Z,61.11
2023-03-06T14:10:14.886Z,61.32
2023-03-06T14:12:44.773Z,61.38
2023-03-06T14:15:16.360Z,60.86
2023-03-06T14:17:54.225Z,61.07
2023-03-06T14:20:22.758Z,61.25
2023-03-06T14:22:50.808Z,61.18
2023-03-06T14:25:21.934Z,61.60
2023-03-06T14:27:51.572Z,60.86
2023-03-06T14:30:24.225Z,61.36
2023-03-06T14:32:55.826Z,61.60
2023-03-06T14:35:28.211Z,61.30
2023-03-06T14:37:58.151Z,61.29
2023-03-06T14:40:29.054Z,61.35
2023-03-06T14:43:20.619Z,61.10
2023-03-06T14:45:52.934Z,61.46
2023-03-06T14:48:22.338Z,61.60
2023-03-06T14:50:51.656Z,62.14
2023-03-06T14:53:22.387Z,62.61
2023-03-06T14:55:51.861Z,62.53
2023-03-06T14:58:21.487Z,63.82
2023-03-06T15:00:52.069Z,64.24
2023-03-06T15:03:22.183Z,64.26
2023-03-06T15:05:52.298Z,64.99
2023-03-06T15:08:23.426Z,65.28
2023-03-06T15:10:56.453Z,65.46
2023-03-06T15:13:25.738Z,65.85
2023-03-06T15:15:58.078Z,65.79
2023-03-06T15:18:35.578Z,65.90
2023-03-06T15:21:09.938Z,66.24
2023-03-06T15:23:39.112Z,66.31
2023-03-06T15:26:21.288Z,66.59
2023-03-06T15:29:03.366Z,66.62
2023-03-06T15:31:37.323Z,67.01
2023-03-06T15:34:14.600Z,66.59
2023-03-06T15:36:44.715Z,67.44
2023-03-06T15:39:29.255Z,67.92
2023-03-06T15:41:58.363Z,68.29
2023-03-06T15:44:26.704Z,68.32
2023-03-06T15:47:07.798Z,68.07
2023-03-06T15:49:37.720Z,68.04
2023-03-06T15:52:07.420Z,68.73
2023-03-06T15:54:35.690Z,69.59
2023-03-06T15:57:04.854Z,70.71
2023-03-06T15:59:34.534Z,70.29
2023-03-06T16:02:04.527Z,70.61
2023-03-06T16:04:32.542Z,70.64
2023-03-06T16:07:00.486Z,70.59
2023-03-06T16:09:29.895Z,70.64
2023-03-06T16:11:57.885Z,71.25
2023-03-06T16:14:25.984Z,71.32
2023-03-06T16:16:54.634Z,71.25
2023-03-06T16:19:26.520Z,70.75
2023-03-06T16:21:55.429Z,70.89
2023-03-06T16:24:23.605Z,71.17
2023-03-06T16:26:55.116Z,71.05
2023-03-06T16:29:24.037Z,70.95
2023-03-06T16:31:52.155Z,71.06
2023-03-06T16:34:20.157Z,71.41
2023-03-06T16:36:49.036Z,71.62
2023-03-06T16:39:17.634Z,71.88
2023-03-06T16:41:46.713Z,71.67
2023-03-06T16:44:16.144Z,71.99
2023-03-06T16:46:46.089Z,71.55
2023-03-06T16:49:17.111Z,71.85
2023-03-06T16:51:45.877Z,71.63
2023-03-06T16:54:14.136Z,72.05
2023-03-06T16:56:42.345Z,72.01
2023-03-06T16:59:10.451Z,71.23
2023-03-06T17:01:41.088Z,71.25
2023-03-06T17:04:09.196Z,71.69
2023-03-06T17:06:37.447Z,70.68
2023-03-06T17:09:05.408Z,70.86
2023-03-06T17:11:33.655Z,70.53
2023-03-06T17:14:02.647Z,70.53
2023-03-06T17:16:30.703Z,70.46
2023-03-06T17:19:02.222Z,70.65
2023-03-06T17:21:30.522Z,70.66
2023-03-06T17:23:58.561Z,70.84
2023-03-06T17:26:26.671Z,70.85
2023-03-06T17:28:56.108Z,70.66
2023-03-06T17:31:25.564Z,71.35
2023-03-06T17:33:57.108Z,71.26
2023-03-06T17:36:26.793Z,71.62
2023-03-06T17:38:56.184Z,71.77
2023-03-06T17:41:25.172Z,71.91
2023-03-06T17:43:53.317Z,72.24
2023-03-06T17:46:21.379Z,72.48
2023-03-06T17:48:49.314Z,72.53
2023-03-06T17:51:17.495Z,71.91
2023-03-06T17:53:46.850Z,72.38
2023-03-06T17:56:15.276Z,72.24
2023-03-06T17:58:43.571Z,72.96
2023-03-06T18:01:12.504Z,73.82
2023-03-06T18:03:40.919Z,74.24
2023-03-06T18:06:09.694Z,73.70
2023-03-06T18:08:38.012Z,73.54
2023-03-06T18:11:07.940Z,73.77
2023-03-06T18:13:36.737Z,74.93
2023-03-06T18:16:05.157Z,74.27
2023-03-06T18:18:33.294Z,74.42
2023-03-06T18:21:04.275Z,74.55
2023-03-06T18:23:32.450Z,74.13
2023-03-06T18:26:11.657Z,74.76
2023-03-06T18:28:40.996Z,75.20
2023-03-06T18:31:15.317Z,75.13
2023-03-06T18:33:43.363Z,75.34
2023-03-06T18:36:11.307Z,75.51
2023-03-06T18:38:40.218Z,75.19
2023-03-06T18:41:09.838Z,76.09
2023-03-06T18:43:38.472Z,76.14
2023-03-06T18:46:07.482Z,75.80
2023-03-06T18:48:35.794Z,76.29
2023-03-06T18:51:07.975Z,76.45
2023-03-06T18:53:36.471Z,76.07
2023-03-06T18:56:04.911Z,75.79
2023-03-06T18:58:34.744Z,75.66
2023-03-06T19:01:06.755Z,75.99
2023-03-06T19:03:34.786Z,76.36
2023-03-06T19:06:04.849Z,76.81
2023-03-06T19:08:32.907Z,76.90
2023-03-06T19:11:02.891Z,76.79
2023-03-06T19:13:30.967Z,76.36
2023-03-06T19:16:00.558Z,76.08
2023-03-06T19:18:29.596Z,76.06
2023-03-06T19:21:07.808Z,75.74
2023-03-06T19:23:35.987Z,75.85
2023-03-06T19:26:06.375Z,75.90
2023-03-06T19:28:35.129Z,75.44
2023-03-06T19:31:10.098Z,75.79
2023-03-06T19:33:38.622Z,75.71
2023-03-06T19:36:07.315Z,74.88
2023-03-06T19:38:35.512Z,74.92
2023-03-06T19:41:03.757Z,75.18
2023-03-06T19:43:31.709Z,75.18
2023-03-06T19:46:00.857Z,74.61
2023-03-06T19:48:30.622Z,74.38
2023-03-06T19:50:58.550Z,74.12
2023-03-06T19:53:28.360Z,74.09
2023-03-06T19:56:03.291Z,73.52
2023-03-06T19:58:31.185Z,73.21
2023-03-06T20:01:04.026Z,73.40
2023-03-06T20:03:33.465Z,72.99
2023-03-06T20:06:01.666Z,72.98
2023-03-06T20:08:29.845Z,72.49
2023-03-06T20:10:57.805Z,71.92
2023-03-06T20:13:25.954Z,71.89
2023-03-06T20:15:54.101Z,71.95
2023-03-06T20:18:22.092Z,71.53
2023-03-06T20:20:59.841Z,71.25
2023-03-06T20:23:28.223Z,71.00
2023-03-06T20:25:56.550Z,70.99
2023-03-06T20:28:24.587Z,70.69
2023-03-06T20:30:52.627Z,70.76
2023-03-06T20:33:22.332Z,70.62
2023-03-06T20:35:50.279Z,70.19
2023-03-06T20:38:19.755Z,70.09
2023-03-06T20:40:48.065Z,70.37
2023-03-06T20:43:16.215Z,69.71
2023-03-06T20:45:44.290Z,69.67
2023-03-06T20:48:12.345Z,69.80
2023-03-06T20:50:40.294Z,69.79
2023-03-06T20:53:08.364Z,69.70
2023-03-06T20:55:38.702Z,69.54
2023-03-06T20:58:06.714Z,69.65
2023-03-06T21:00:34.689Z,69.53
2023-03-06T21:03:02.754Z,69.39
2023-03-06T21:05:30.679Z,69.78
2023-03-06T21:07:58.652Z,69.70
2023-03-06T21:10:26.629Z,69.47
2023-03-06T21:12:55.979Z,69.23
2023-03-06T21:15:27.258Z,69.31
2023-03-06T21:17:55.182Z,69.50
2023-03-06T21:20:23.232Z,69.25
2023-03-06T21:22:52.185Z,69.35
2023-03-06T21:25:20.124Z,69.34
2023-03-06T21:27:48.307Z,69.12
2023-03-06T21:30:17.818Z,69.43
2023-03-06T21:32:45.748Z,69.08
2023-03-06T21:35:14.143Z,69.23
2023-03-06T21:37:42.119Z,69.14
2023-03-06T21:40:10.965Z,68.77
2023-03-06T21:42:39.013Z,69.16
2023-03-06T21:45:08.570Z,68.64
2023-03-06T21:47:41.106Z,69.13
2023-03-06T21:50:12.958Z,68.59
2023-03-06T21:52:40.844Z,68.71
2023-03-06T21:55:09.678Z,68.54
2023-03-06T21:57:37.691Z,68.74
2023-03-06T22:00:08.614Z,68.78
2023-03-06T22:02:38.352Z,68.73
2023-03-06T22:05:07.161Z,68.67
2023-03-06T22:07:36.668Z,68.57
2023-03-06T22:10:04.869Z,68.47
2023-03-06T22:12:34.467Z,68.51
2023-03-06T22:15:02.515Z,68.58
2023-03-06T22:17:31.666Z,68.67
2023-03-06T22:20:01.042Z,68.86
2023-03-06T22:22:29.002Z,68.79
2023-03-06T22:24:57.020Z,68.22
2023-03-06T22:27:24.904Z,68.61
2023-03-06T22:29:53.396Z,68.53
2023-03-06T22:32:23.196Z,68.40
2023-03-06T22:34:52.428Z,68.78
2023-03-06T22:37:21.754Z,68.38
2023-03-06T22:39:49.647Z,68.28
2023-03-06T22:42:17.677Z,68.42
2023-03-06T22:44:45.595Z,67.97
2023-03-06T22:47:13.603Z,68.12
2023-03-06T22:49:41.694Z,68.29
2023-03-06T22:52:10.037Z,68.40
2023-03-06T22:54:39.369Z,68.12
2023-03-06T22:57:07.244Z,67.41
2023-03-06T22:59:35.239Z,68.13
2023-03-06T23:02:04.130Z,68.10
2023-03-06T23:04:32.164Z,68.05
2023-03-06T23:07:00.125Z,68.01
2023-03-06T23:09:28.033Z,68.00
2023-03-06T23:11:57.281Z,67.85
2023-03-06T23:14:25.488Z,67.97
2023-03-06T23:16:53.685Z,67.85
2023-03-06T23:19:21.684Z,67.97
2023-03-06T23:21:49.944Z,67.96
2023-03-06T23:24:18.293Z,67.55
2023-03-06T23:26:46.213Z,67.67
2023-03-06T23:29:15.726Z,67.95
2023-03-06T23:31:43.847Z,67.93
2023-03-06T23:34:12.063Z,67.91
2023-03-06T23:36:40.075Z,67.87
2023-03-06T23:39:08.014Z,67.92
2023-03-06T23:41:36.274Z,68.04
2023-03-06T23:44:05.224Z,67.63
2023-03-06T23:46:34.836Z,67.64
2023-03-06T23:49:02.937Z,67.50
2023-03-06T23:51:30.968Z,67.50
2023-03-06T23:53:59.828Z,67.51
2023-03-06T23:56:28.617Z,67.58
2023-03-06T23:58:56.934Z,67.57
